WetterOnline ( https://www.wetteronline.de )

Wetter aktuell Krummhörn

Aktuelles Wetter: Norderney (16m)

6-stündlich | Neueste Meldungen
Ortszeit Temperatur Wetter
Do, 18.08. 14:00 18.7° C bedeckt
Do, 18.08. 8:00 18.6° C bedeckt
Do, 18.08. 2:00 18.6° C leichter Regen
Mi, 17.08. 20:00 19.2° C Regen
Mi, 17.08. 14:00 20.4° C bedeckt
Mi, 17.08. 8:00 19.6° C bewölkt
Mi, 17.08. 2:00 19.0° C wolkig
Di, 16.08. 20:00 20.2° C bewölkt
Ortszeit Temperatur Wetter
Do, 18.08. 16:00 19.0° C wolkig
Do, 18.08. 15:40 18.7° C leicht bewölkt
Do, 18.08. 15:30 18.8° C wolkig
Do, 18.08. 15:20 18.8° C wolkig
Do, 18.08. 15:10 19.2° C leicht bewölkt
Do, 18.08. 15:00 18.8° C leicht bewölkt
Do, 18.08. 14:50 18.8° C leicht bewölkt
Do, 18.08. 14:30 18.5° C bedeckt
Do, 18.08. 14:00 18.7° C bedeckt
Do, 18.08. 13:30 18.4° C bedeckt
Do, 18.08. 13:00 18.5° C bedeckt
Ortszeit Relative Feuchte Sichtweite
Do, 18.08. 14:00 87% 14 km
Do, 18.08. 8:00 92% 14 km
Do, 18.08. 2:00 94% 6 km
Mi, 17.08. 20:00 91% 7 km
Mi, 17.08. 14:00 92% 10 km
Mi, 17.08. 8:00 93% 8 km
Mi, 17.08. 2:00 92% 7 km
Di, 16.08. 20:00 88% 13 km
Ortszeit Relative Feuchte Sichtweite
Do, 18.08. 16:00 84% 11 km
Do, 18.08. 15:40 82% -
Do, 18.08. 15:30 83% 11 km
Do, 18.08. 15:20 83% -
Do, 18.08. 15:10 82% -
Do, 18.08. 15:00 84% 17 km
Do, 18.08. 14:50 84% -
Do, 18.08. 14:30 85% 11 km
Do, 18.08. 14:00 87% 14 km
Do, 18.08. 13:30 88% 14 km
Do, 18.08. 13:00 89% 17 km
Ortszeit Niederschlagsmenge Niederschlagsart
Do, 18.08. 14:00 0.0 l/m2 in 6 Std. -
Do, 18.08. 8:00 8 l/m2 in 12 Std. Regen
Do, 18.08. 2:00 7 l/m2 in 6 Std. Regen
Mi, 17.08. 20:00 5 l/m2 in 12 Std. Regen
Mi, 17.08. 14:00 0.9 l/m2 in 6 Std. Regen
Mi, 17.08. 8:00 0.0 l/m2 in 12 Std. -
Mi, 17.08. 2:00 0.0 l/m2 in 6 Std. -
Di, 16.08. 20:00 0.0 l/m2 in 12 Std. -
Ortszeit Niederschlagsmenge Niederschlagsart
Do, 18.08. 16:00 0.0 l/m2 in 1 Std. -
Do, 18.08. 15:40 keine Meldung -
Do, 18.08. 15:30 0.0 l/m2 in 1 Std. -
Do, 18.08. 15:20 keine Meldung -
Do, 18.08. 15:10 keine Meldung -
Do, 18.08. 15:00 0.0 l/m2 in 1 Std. -
Do, 18.08. 14:50 keine Meldung -
Do, 18.08. 14:30 0.0 l/m2 in 1 Std. -
Do, 18.08. 14:00 0.0 l/m2 in 1 Std. -
Do, 18.08. 13:30 0.0 l/m2 in 1 Std. -
Do, 18.08. 13:00 0.0 l/m2 in 1 Std. -
Ortszeit Stärke Spitze Richtung
km/h Bft. km/h Grad Sektor
Do, 18.08. 14:00 25 4 40 360° N
Do, 18.08. 8:00 30 5 44 360° N
Do, 18.08. 2:00 41 6 54 10° N
Mi, 17.08. 20:00 14 3 54 10° N
Mi, 17.08. 14:00 30 5 37 30° NO
Mi, 17.08. 8:00 19 3 22 30° NO
Mi, 17.08. 2:00 7 2 22 70° O
Di, 16.08. 20:00 18 3 29 300° NW
Ortszeit Stärke Spitze Richtung
km/h Bft. km/h Grad Sektor
Do, 18.08. 16:00 22 4 25 360° N
Do, 18.08. 15:40 22 4 - 360° N
Do, 18.08. 15:30 18 3 25 350° N
Do, 18.08. 15:20 18 3 - 350° N
Do, 18.08. 15:10 18 3 - 350° N
Do, 18.08. 15:00 22 4 29 350° N
Do, 18.08. 14:50 22 4 - 350° N
Do, 18.08. 14:30 24 4 28 340° N
Do, 18.08. 14:00 25 4 32 360° N
Do, 18.08. 13:30 28 4 31 360° N
Do, 18.08. 13:00 29 5 36 350° N
Ortszeit Untergrenze Bedeckung Gattung
total tief tief mittel hoch
Do, 18.08. 14:00 270 m 8/8 8/8 - - -
Do, 18.08. 8:00 210 m 8/8 8/8 - - -
Do, 18.08. 2:00 <30 m 8/8 0/8 - - -
Mi, 17.08. 20:00 1110 m 8/8 8/8 - - -
Mi, 17.08. 14:00 180 m 8/8 8/8 - - -
Mi, 17.08. 8:00 180 m 7/8 7/8 - - -
Mi, 17.08. 2:00 210 m 8/8 3/8 - - -
Di, 16.08. 20:00 4800 m 8/8 6/8 - - -
Ortszeit Bedeckungsgrad in Achtel und Wolkenuntergrenze
Do, 18.08. 16:00 1(300m) 5(720m)
Do, 18.08. 15:40 4
Do, 18.08. 15:30 5(330m)
Do, 18.08. 15:20 5(330m)
Do, 18.08. 15:10 4
Do, 18.08. 15:00 3(300m) 3(540m)
Do, 18.08. 14:50 3(300m) 3(540m) 3(690m)
Do, 18.08. 14:30 4(300m) 8(570m) 8(1260m)
Do, 18.08. 14:00 4(270m) 6(540m) 8(1290m)
Do, 18.08. 13:30 4(240m) 7(420m) 8(630m)
Do, 18.08. 13:00 3(240m) 5(390m) 8(510m)
Ortszeit Luftdruck NN (hPa) Tendenz (hPa in 3 Std.)
Do, 18.08. 14:00 1014 + 0,8
Do, 18.08. 8:00 1012 + 0,8
Do, 18.08. 2:00 1012 + 0,3
Mi, 17.08. 20:00 1012 + 0,4
Mi, 17.08. 14:00 1013 - 0,2
Mi, 17.08. 8:00 1012 + 0,7
Mi, 17.08. 2:00 1011 + 0,2
Di, 16.08. 20:00 1010 + 1,0
Ortszeit Luftdruck NN (hPa) Tendenz (hPa in 3 Std.)
Do, 18.08. 16:00 1014 0,0
Do, 18.08. 15:40 1014 keine Meldung
Do, 18.08. 15:30 1014 + 0,1
Do, 18.08. 15:20 1014 keine Meldung
Do, 18.08. 15:10 1014 keine Meldung
Do, 18.08. 15:00 1014 + 0,3
Do, 18.08. 14:50 1014 keine Meldung
Do, 18.08. 14:30 1014 + 0,7
Do, 18.08. 14:00 1014 + 0,8
Do, 18.08. 13:30 1014 + 0,8
Do, 18.08. 13:00 1014 + 1,1
Ortszeit Schneehöhe (cm)
Do, 18.08. 14:00 0
Do, 18.08. 8:00 0
Do, 18.08. 2:00 0
Mi, 17.08. 20:00 0
Mi, 17.08. 14:00 0
Mi, 17.08. 8:00 0
Mi, 17.08. 2:00 0
Di, 16.08. 20:00 0
Ortszeit Schneehöhe (cm)
Do, 18.08. 16:00 -
Do, 18.08. 15:40 -
Do, 18.08. 15:30 0
Do, 18.08. 15:20 -
Do, 18.08. 15:10 -
Do, 18.08. 15:00 -
Do, 18.08. 14:50 -
Do, 18.08. 14:30 -
Do, 18.08. 14:00 0
Do, 18.08. 13:30 -
Do, 18.08. 13:00 0
Link zu dieser Seite / Seite empfehlen

Das Wetter in ...